sensor_id;sensor_type;location;lat;lon;timestamp;noise_LAeq;noise_LA_min;noise_LA_max;noise_LA01;noise_LA95
49215;Laerm;45943;53.148;8.204;2023-10-31T00:01:12;45.99;37.72;73.18;;
49215;Laerm;45943;53.148;8.204;2023-10-31T00:03:38;41.80;38.12;55.57;;
49215;Laerm;45943;53.148;8.204;2023-10-31T00:06:06;41.21;37.29;61.24;;
49215;Laerm;45943;53.148;8.204;2023-10-31T00:08:32;58.00;37.29;67.80;;
49215;Laerm;45943;53.148;8.204;2023-10-31T00:10:58;40.87;36.26;54.63;;
49215;Laerm;45943;53.148;8.204;2023-10-31T00:13:24;45.71;37.29;64.12;;
49215;Laerm;45943;53.148;8.204;2023-10-31T00:15:50;41.20;37.29;50.41;;
49215;Laerm;45943;53.148;8.204;2023-10-31T00:18:16;40.77;37.72;49.56;;
49215;Laerm;45943;53.148;8.204;2023-10-31T00:20:42;40.90;37.51;50.06;;
49215;Laerm;45943;53.148;8.204;2023-10-31T00:23:08;43.62;37.92;60.93;;
49215;Laerm;45943;53.148;8.204;2023-10-31T00:25:34;41.18;37.72;54.28;;
49215;Laerm;45943;53.148;8.204;2023-10-31T00:28:00;55.78;38.65;76.08;;
49215;Laerm;45943;53.148;8.204;2023-10-31T00:30:26;41.08;37.51;54.03;;
49215;Laerm;45943;53.148;8.204;2023-10-31T00:32:52;50.75;38.12;67.47;;
49215;Laerm;45943;53.148;8.204;2023-10-31T00:35:18;47.13;38.12;65.88;;
49215;Laerm;45943;53.148;8.204;2023-10-31T00:37:44;46.34;38.30;66.10;;
49215;Laerm;45943;53.148;8.204;2023-10-31T00:40:10;50.24;37.29;68.67;;
49215;Laerm;45943;53.148;8.204;2023-10-31T00:42:39;48.37;38.12;65.94;;
49215;Laerm;45943;53.148;8.204;2023-10-31T00:45:08;41.99;37.92;58.70;;
49215;Laerm;45943;53.148;8.204;2023-10-31T00:47:34;44.00;38.30;60.32;;
49215;Laerm;45943;53.148;8.204;2023-10-31T00:50:00;46.40;38.12;63.10;;
49215;Laerm;45943;53.148;8.204;2023-10-31T00:52:26;41.07;38.12;45.03;;
49215;Laerm;45943;53.148;8.204;2023-10-31T00:54:52;41.14;37.92;49.21;;
49215;Laerm;45943;53.148;8.204;2023-10-31T00:57:18;46.34;37.51;63.88;;
49215;Laerm;45943;53.148;8.204;2023-10-31T00:59:44;43.61;37.72;62.51;;
49215;Laerm;45943;53.148;8.204;2023-10-31T01:02:10;42.27;37.51;57.75;;
49215;Laerm;45943;53.148;8.204;2023-10-31T01:04:36;41.49;38.12;56.23;;
49215;Laerm;45943;53.148;8.204;2023-10-31T01:07:03;45.68;38.65;62.12;;
49215;Laerm;45943;53.148;8.204;2023-10-31T01:09:29;40.72;37.72;55.30;;
49215;Laerm;45943;53.148;8.204;2023-10-31T01:11:55;51.61;37.05;69.95;;
49215;Laerm;45943;53.148;8.204;2023-10-31T01:14:21;49.43;38.30;67.24;;
49215;Laerm;45943;53.148;8.204;2023-10-31T01:16:47;43.50;34.91;63.84;;
49215;Laerm;45943;53.148;8.204;2023-10-31T01:19:13;41.02;37.29;51.03;;
49215;Laerm;45943;53.148;8.204;2023-10-31T01:21:39;41.44;37.92;58.71;;
49215;Laerm;45943;53.148;8.204;2023-10-31T01:24:05;40.11;38.12;42.76;;
49215;Laerm;45943;53.148;8.204;2023-10-31T01:26:31;43.05;37.05;63.39;;
49215;Laerm;45943;53.148;8.204;2023-10-31T01:28:57;41.41;38.12;65.07;;
49215;Laerm;45943;53.148;8.204;2023-10-31T01:31:24;40.75;37.51;59.04;;
49215;Laerm;45943;53.148;8.204;2023-10-31T01:33:49;40.43;38.12;44.87;;
49215;Laerm;45943;53.148;8.204;2023-10-31T01:36:15;55.75;38.12;76.59;;
49215;Laerm;45943;53.148;8.204;2023-10-31T01:38:43;53.42;38.65;74.51;;
49215;Laerm;45943;53.148;8.204;2023-10-31T01:41:12;46.78;38.48;63.08;;
49215;Laerm;45943;53.148;8.204;2023-10-31T01:43:38;41.74;38.12;55.19;;
49215;Laerm;45943;53.148;8.204;2023-10-31T01:46:04;41.44;38.12;58.32;;
49215;Laerm;45943;53.148;8.204;2023-10-31T01:48:32;40.37;37.92;53.70;;
49215;Laerm;45943;53.148;8.204;2023-10-31T01:50:59;51.27;38.12;68.73;;
49215;Laerm;45943;53.148;8.204;2023-10-31T01:53:28;41.50;38.30;57.81;;
49215;Laerm;45943;53.148;8.204;2023-10-31T01:55:56;41.88;38.12;61.83;;
49215;Laerm;45943;53.148;8.204;2023-10-31T01:58:26;40.24;37.92;44.79;;
49215;Laerm;45943;53.148;8.204;2023-10-31T02:00:55;46.54;37.92;65.97;;
49215;Laerm;45943;53.148;8.204;2023-10-31T02:03:21;61.53;39.12;71.68;;
49215;Laerm;45943;53.148;8.204;2023-10-31T02:05:47;41.70;38.12;58.68;;
49215;Laerm;45943;53.148;8.204;2023-10-31T02:08:13;40.30;38.12;42.89;;
49215;Laerm;45943;53.148;8.204;2023-10-31T02:10:39;42.26;38.48;61.38;;
49215;Laerm;45943;53.148;8.204;2023-10-31T02:13:12;40.47;38.12;44.37;;
49215;Laerm;45943;53.148;8.204;2023-10-31T02:15:38;60.29;37.95;71.34;;
49215;Laerm;45943;53.148;8.204;2023-10-31T02:18:05;40.56;38.12;50.54;;
49215;Laerm;45943;53.148;8.204;2023-10-31T02:20:31;41.16;38.30;52.34;;
49215;Laerm;45943;53.148;8.204;2023-10-31T02:22:57;41.95;36.26;66.11;;
49215;Laerm;45943;53.148;8.204;2023-10-31T02:25:23;40.35;38.12;45.36;;
49215;Laerm;45943;53.148;8.204;2023-10-31T02:27:49;40.55;38.47;48.92;;
49215;Laerm;45943;53.148;8.204;2023-10-31T02:30:15;40.63;38.12;59.44;;
49215;Laerm;45943;53.148;8.204;2023-10-31T02:32:42;40.43;37.92;45.18;;
49215;Laerm;45943;53.148;8.204;2023-10-31T02:35:08;42.86;38.12;56.66;;
49215;Laerm;45943;53.148;8.204;2023-10-31T02:37:34;40.39;38.12;44.59;;
49215;Laerm;45943;53.148;8.204;2023-10-31T02:40:01;40.52;38.12;44.50;;
49215;Laerm;45943;53.148;8.204;2023-10-31T02:42:27;48.19;38.48;65.04;;
49215;Laerm;45943;53.148;8.204;2023-10-31T02:44:53;49.84;37.72;69.46;;
49215;Laerm;45943;53.148;8.204;2023-10-31T02:47:19;47.46;38.48;66.38;;
49215;Laerm;45943;53.148;8.204;2023-10-31T02:49:45;48.35;39.27;63.87;;
49215;Laerm;45943;53.148;8.204;2023-10-31T02:52:11;42.17;39.27;48.04;;
49215;Laerm;45943;53.148;8.204;2023-10-31T02:54:37;42.44;39.41;55.31;;
49215;Laerm;45943;53.148;8.204;2023-10-31T02:57:04;44.12;39.94;58.12;;
49215;Laerm;45943;53.148;8.204;2023-10-31T02:59:30;43.97;40.18;61.13;;
49215;Laerm;45943;53.148;8.204;2023-10-31T03:01:57;46.35;40.83;71.16;;
49215;Laerm;45943;53.148;8.204;2023-10-31T03:04:23;50.77;43.84;70.89;;
49215;Laerm;45943;53.148;8.204;2023-10-31T03:06:49;52.83;41.13;72.52;;
49215;Laerm;45943;53.148;8.204;2023-10-31T03:09:15;46.84;41.66;61.76;;
49215;Laerm;45943;53.148;8.204;2023-10-31T03:11:41;53.46;45.11;73.04;;
49215;Laerm;45943;53.148;8.204;2023-10-31T03:14:07;46.38;41.03;66.12;;
49215;Laerm;45943;53.148;8.204;2023-10-31T03:16:33;45.75;39.27;61.36;;
49215;Laerm;45943;53.148;8.204;2023-10-31T03:18:59;41.96;38.65;54.56;;
49215;Laerm;45943;53.148;8.204;2023-10-31T03:21:25;44.89;38.97;71.23;;
49215;Laerm;45943;53.148;8.204;2023-10-31T03:23:52;42.27;39.27;58.78;;
49215;Laerm;45943;53.148;8.204;2023-10-31T03:26:22;45.07;38.97;71.40;;
49215;Laerm;45943;53.148;8.204;2023-10-31T03:28:48;44.94;40.52;71.55;;
49215;Laerm;45943;53.148;8.204;2023-10-31T03:31:14;46.06;41.49;72.16;;
49215;Laerm;45943;53.148;8.204;2023-10-31T03:33:41;47.41;41.98;71.31;;
49215;Laerm;45943;53.148;8.204;2023-10-31T03:36:08;46.21;40.52;73.16;;
49215;Laerm;45943;53.148;8.204;2023-10-31T03:38:35;45.23;40.30;69.79;;
49215;Laerm;45943;53.148;8.204;2023-10-31T03:41:01;45.80;39.81;71.51;;
49215;Laerm;45943;53.148;8.204;2023-10-31T03:43:28;49.27;39.12;73.29;;
49215;Laerm;45943;53.148;8.204;2023-10-31T03:45:54;47.10;39.27;67.65;;
49215;Laerm;45943;53.148;8.204;2023-10-31T03:48:20;41.51;38.97;50.51;;
49215;Laerm;45943;53.148;8.204;2023-10-31T03:50:46;41.90;39.12;53.16;;
49215;Laerm;45943;53.148;8.204;2023-10-31T03:53:12;44.57;38.81;70.79;;
49215;Laerm;45943;53.148;8.204;2023-10-31T03:55:38;49.26;42.35;73.36;;
49215;Laerm;45943;53.148;8.204;2023-10-31T03:58:04;52.54;43.58;73.41;;
49215;Laerm;45943;53.148;8.204;2023-10-31T04:00:31;54.71;49.23;72.66;;
49215;Laerm;45943;53.148;8.204;2023-10-31T04:02:57;54.14;46.85;76.49;;
49215;Laerm;45943;53.148;8.204;2023-10-31T04:05:23;50.63;44.71;73.38;;
49215;Laerm;45943;53.148;8.204;2023-10-31T04:07:49;49.48;43.64;72.12;;
49215;Laerm;45943;53.148;8.204;2023-10-31T04:10:16;53.38;41.98;75.72;;
49215;Laerm;45943;53.148;8.204;2023-10-31T04:12:43;46.28;41.13;73.24;;
49215;Laerm;45943;53.148;8.204;2023-10-31T04:15:09;43.95;39.55;54.23;;
49215;Laerm;45943;53.148;8.204;2023-10-31T04:17:35;42.73;39.68;53.08;;
49215;Laerm;45943;53.148;8.204;2023-10-31T04:20:01;46.89;39.12;62.45;;
49215;Laerm;45943;53.148;8.204;2023-10-31T04:22:28;42.17;39.41;56.98;;
49215;Laerm;45943;53.148;8.204;2023-10-31T04:24:54;44.14;39.41;70.75;;
49215;Laerm;45943;53.148;8.204;2023-10-31T04:27:19;43.26;39.27;67.74;;
49215;Laerm;45943;53.148;8.204;2023-10-31T04:29:46;49.08;39.55;67.88;;
49215;Laerm;45943;53.148;8.204;2023-10-31T04:32:11;52.00;39.27;73.62;;
49215;Laerm;45943;53.148;8.204;2023-10-31T04:34:37;47.89;39.41;66.30;;
49215;Laerm;45943;53.148;8.204;2023-10-31T04:37:04;43.54;39.68;59.89;;
49215;Laerm;45943;53.148;8.204;2023-10-31T04:39:30;44.42;40.83;62.64;;
49215;Laerm;45943;53.148;8.204;2023-10-31T04:41:56;46.14;40.73;73.71;;
49215;Laerm;45943;53.148;8.204;2023-10-31T04:44:22;51.29;39.55;69.25;;
49215;Laerm;45943;53.148;8.204;2023-10-31T04:46:48;42.68;39.55;61.00;;
49215;Laerm;45943;53.148;8.204;2023-10-31T04:49:14;42.50;39.68;55.87;;
49215;Laerm;45943;53.148;8.204;2023-10-31T04:51:41;51.09;39.55;71.85;;
49215;Laerm;45943;53.148;8.204;2023-10-31T04:54:07;45.46;39.55;71.84;;
49215;Laerm;45943;53.148;8.204;2023-10-31T04:56:33;51.58;39.41;74.45;;
49215;Laerm;45943;53.148;8.204;2023-10-31T04:58:59;47.83;41.03;71.42;;
49215;Laerm;45943;53.148;8.204;2023-10-31T05:01:25;50.38;43.25;75.06;;
49215;Laerm;45943;53.148;8.204;2023-10-31T05:03:51;47.77;41.98;75.13;;
49215;Laerm;45943;53.148;8.204;2023-10-31T05:06:20;52.51;42.28;70.83;;
49215;Laerm;45943;53.148;8.204;2023-10-31T05:08:47;51.66;42.49;71.55;;
49215;Laerm;45943;53.148;8.204;2023-10-31T05:11:13;43.51;40.93;50.22;;
49215;Laerm;45943;53.148;8.204;2023-10-31T05:13:39;56.16;41.58;78.05;;
49215;Laerm;45943;53.148;8.204;2023-10-31T05:16:05;45.70;41.74;62.97;;
49215;Laerm;45943;53.148;8.204;2023-10-31T05:18:32;46.84;41.90;72.26;;
49215;Laerm;45943;53.148;8.204;2023-10-31T05:20:57;49.08;41.58;73.31;;
49215;Laerm;45943;53.148;8.204;2023-10-31T05:23:23;44.66;40.93;63.97;;
49215;Laerm;45943;53.148;8.204;2023-10-31T05:25:49;45.38;40.83;72.46;;
49215;Laerm;45943;53.148;8.204;2023-10-31T05:28:15;47.54;41.66;72.94;;
49215;Laerm;45943;53.148;8.204;2023-10-31T05:30:41;44.88;42.56;59.83;;
49215;Laerm;45943;53.148;8.204;2023-10-31T05:33:07;48.58;42.82;74.31;;
49215;Laerm;45943;53.148;8.204;2023-10-31T05:35:33;49.48;42.35;73.79;;
49215;Laerm;45943;53.148;8.204;2023-10-31T05:37:59;49.50;42.42;68.14;;
49215;Laerm;45943;53.148;8.204;2023-10-31T05:40:25;49.81;43.48;70.28;;
49215;Laerm;45943;53.148;8.204;2023-10-31T05:42:53;46.44;42.35;68.47;;
49215;Laerm;45943;53.148;8.204;2023-10-31T05:45:19;48.28;42.89;63.46;;
49215;Laerm;45943;53.148;8.204;2023-10-31T05:47:45;51.83;42.76;70.12;;
49215;Laerm;45943;53.148;8.204;2023-10-31T05:50:11;50.78;42.06;71.53;;
49215;Laerm;45943;53.148;8.204;2023-10-31T05:52:37;50.83;42.28;72.75;;
49215;Laerm;45943;53.148;8.204;2023-10-31T05:55:03;45.49;42.49;67.14;;
49215;Laerm;45943;53.148;8.204;2023-10-31T05:57:29;49.50;42.82;78.37;;
49215;Laerm;45943;53.148;8.204;2023-10-31T05:59:55;51.84;42.21;72.02;;
49215;Laerm;45943;53.148;8.204;2023-10-31T06:02:21;46.30;42.63;72.55;;
49215;Laerm;45943;53.148;8.204;2023-10-31T06:04:47;48.89;42.63;65.36;;
49215;Laerm;45943;53.148;8.204;2023-10-31T06:07:13;46.92;42.76;70.35;;
49215;Laerm;45943;53.148;8.204;2023-10-31T06:09:39;46.68;43.13;67.55;;
49215;Laerm;45943;53.148;8.204;2023-10-31T06:12:05;50.50;43.42;67.92;;
49215;Laerm;45943;53.148;8.204;2023-10-31T06:14:31;49.44;44.83;74.89;;
49215;Laerm;45943;53.148;8.204;2023-10-31T06:16:57;50.32;45.57;74.63;;
49215;Laerm;45943;53.148;8.204;2023-10-31T06:19:25;51.76;45.25;78.29;;
49215;Laerm;45943;53.148;8.204;2023-10-31T06:21:51;59.05;48.12;76.33;;
49215;Laerm;45943;53.148;8.204;2023-10-31T06:24:17;56.54;46.17;75.38;;
49215;Laerm;45943;53.148;8.204;2023-10-31T06:26:43;51.95;44.32;73.71;;
49215;Laerm;45943;53.148;8.204;2023-10-31T06:29:09;48.99;44.54;70.73;;
49215;Laerm;45943;53.148;8.204;2023-10-31T06:31:35;50.12;44.94;73.06;;
49215;Laerm;45943;53.148;8.204;2023-10-31T06:34:01;55.72;46.73;74.94;;
49215;Laerm;45943;53.148;8.204;2023-10-31T06:36:27;52.35;45.43;74.98;;
49215;Laerm;45943;53.148;8.204;2023-10-31T06:38:53;55.25;46.02;74.95;;
49215;Laerm;45943;53.148;8.204;2023-10-31T06:41:19;50.12;45.18;73.10;;
49215;Laerm;45943;53.148;8.204;2023-10-31T06:43:45;58.43;48.44;74.74;;
49215;Laerm;45943;53.148;8.204;2023-10-31T06:46:11;54.34;46.48;72.53;;
49215;Laerm;45943;53.148;8.204;2023-10-31T06:48:37;55.91;46.70;74.46;;
49215;Laerm;45943;53.148;8.204;2023-10-31T06:51:03;55.45;48.94;73.93;;
49215;Laerm;45943;53.148;8.204;2023-10-31T06:53:29;55.95;45.61;74.67;;
49215;Laerm;45943;53.148;8.204;2023-10-31T06:55:55;54.18;44.50;70.51;;
49215;Laerm;45943;53.148;8.204;2023-10-31T06:58:21;54.05;44.41;72.28;;
49215;Laerm;45943;53.148;8.204;2023-10-31T07:00:47;53.49;44.95;70.34;;
49215;Laerm;45943;53.148;8.204;2023-10-31T07:03:13;54.15;44.99;73.20;;
49215;Laerm;45943;53.148;8.204;2023-10-31T07:05:41;55.30;47.64;75.77;;
49215;Laerm;45943;53.148;8.204;2023-10-31T07:08:07;62.72;47.84;74.36;;
49215;Laerm;45943;53.148;8.204;2023-10-31T07:10:33;53.64;46.29;73.94;;
49215;Laerm;45943;53.148;8.204;2023-10-31T07:12:59;52.43;46.80;72.65;;
49215;Laerm;45943;53.148;8.204;2023-10-31T07:15:25;50.42;45.96;70.09;;
49215;Laerm;45943;53.148;8.204;2023-10-31T07:17:51;51.60;43.94;72.01;;
49215;Laerm;45943;53.148;8.204;2023-10-31T07:20:17;53.37;44.09;74.32;;
49215;Laerm;45943;53.148;8.204;2023-10-31T07:22:44;52.86;45.90;69.85;;
49215;Laerm;45943;53.148;8.204;2023-10-31T07:25:10;54.02;45.54;73.83;;
49215;Laerm;45943;53.148;8.204;2023-10-31T07:27:36;50.04;43.79;75.19;;
49215;Laerm;45943;53.148;8.204;2023-10-31T07:30:03;50.02;43.36;72.89;;
49215;Laerm;45943;53.148;8.204;2023-10-31T07:32:30;48.03;42.49;75.09;;
49215;Laerm;45943;53.148;8.204;2023-10-31T07:34:56;54.44;42.76;76.84;;
49215;Laerm;45943;53.148;8.204;2023-10-31T07:37:22;49.35;42.28;67.48;;
49215;Laerm;45943;53.148;8.204;2023-10-31T07:39:48;54.41;41.98;72.48;;
49215;Laerm;45943;53.148;8.204;2023-10-31T07:42:14;45.28;41.58;60.25;;
49215;Laerm;45943;53.148;8.204;2023-10-31T07:44:40;50.64;41.90;68.62;;
49215;Laerm;45943;53.148;8.204;2023-10-31T07:47:06;44.97;41.49;69.73;;
49215;Laerm;45943;53.148;8.204;2023-10-31T07:49:32;51.95;42.49;71.84;;
49215;Laerm;45943;53.148;8.204;2023-10-31T07:51:58;51.08;42.76;71.02;;
49215;Laerm;45943;53.148;8.204;2023-10-31T07:54:24;51.28;41.90;71.08;;
49215;Laerm;45943;53.148;8.204;2023-10-31T07:56:50;53.36;42.06;72.94;;
49215;Laerm;45943;53.148;8.204;2023-10-31T07:59:16;50.67;42.06;70.20;;
49215;Laerm;45943;53.148;8.204;2023-10-31T08:01:42;49.09;41.98;70.66;;
49215;Laerm;45943;53.148;8.204;2023-10-31T08:04:08;49.41;41.58;68.41;;
49215;Laerm;45943;53.148;8.204;2023-10-31T08:06:34;47.17;42.21;71.56;;
49215;Laerm;45943;53.148;8.204;2023-10-31T08:09:00;53.97;42.76;71.51;;
49215;Laerm;45943;53.148;8.204;2023-10-31T08:11:26;48.34;42.21;71.02;;
49215;Laerm;45943;53.148;8.204;2023-10-31T08:13:53;53.20;42.35;70.49;;
49215;Laerm;45943;53.148;8.204;2023-10-31T08:16:19;58.66;42.21;69.11;;
49215;Laerm;45943;53.148;8.204;2023-10-31T08:18:45;54.38;43.19;74.17;;
49215;Laerm;45943;53.148;8.204;2023-10-31T08:21:12;53.79;43.48;70.27;;
49215;Laerm;45943;53.148;8.204;2023-10-31T08:23:38;51.59;42.82;67.13;;
49215;Laerm;45943;53.148;8.204;2023-10-31T08:26:04;54.72;42.95;72.52;;
49215;Laerm;45943;53.148;8.204;2023-10-31T08:28:30;52.23;43.36;71.60;;
49215;Laerm;45943;53.148;8.204;2023-10-31T08:30:57;48.34;43.79;73.60;;
49215;Laerm;45943;53.148;8.204;2023-10-31T08:33:24;53.48;43.31;70.28;;
49215;Laerm;45943;53.148;8.204;2023-10-31T08:35:50;53.81;42.49;70.76;;
49215;Laerm;45943;53.148;8.204;2023-10-31T08:38:17;52.79;42.69;73.73;;
49215;Laerm;45943;53.148;8.204;2023-10-31T08:40:42;55.35;43.01;70.24;;
49215;Laerm;45943;53.148;8.204;2023-10-31T08:43:08;49.16;41.98;68.09;;
49215;Laerm;45943;53.148;8.204;2023-10-31T08:45:35;54.51;43.48;71.23;;
49215;Laerm;45943;53.148;8.204;2023-10-31T08:48:00;56.06;43.31;70.85;;
49215;Laerm;45943;53.148;8.204;2023-10-31T08:50:26;53.60;43.64;68.52;;
49215;Laerm;45943;53.148;8.204;2023-10-31T08:52:53;62.91;44.23;91.89;;
49215;Laerm;45943;53.148;8.204;2023-10-31T08:55:19;53.50;42.56;68.85;;
49215;Laerm;45943;53.148;8.204;2023-10-31T08:57:46;47.52;42.06;64.58;;
49215;Laerm;45943;53.148;8.204;2023-10-31T09:00:12;52.39;42.28;71.77;;
49215;Laerm;45943;53.148;8.204;2023-10-31T09:02:39;51.18;42.13;69.40;;
49215;Laerm;45943;53.148;8.204;2023-10-31T09:05:05;50.38;42.21;75.62;;
49215;Laerm;45943;53.148;8.204;2023-10-31T09:07:31;47.09;42.49;62.50;;
49215;Laerm;45943;53.148;8.204;2023-10-31T09:09:58;46.28;43.13;63.87;;
49215;Laerm;45943;53.148;8.204;2023-10-31T09:12:24;50.40;41.98;70.45;;
49215;Laerm;45943;53.148;8.204;2023-10-31T09:14:50;49.76;41.93;72.92;;
49215;Laerm;45943;53.148;8.204;2023-10-31T09:17:16;49.27;41.90;70.35;;
49215;Laerm;45943;53.148;8.204;2023-10-31T09:19:42;57.40;42.13;75.45;;
49215;Laerm;45943;53.148;8.204;2023-10-31T09:22:08;50.49;42.28;67.49;;
49215;Laerm;45943;53.148;8.204;2023-10-31T09:24:34;45.16;42.42;61.52;;
49215;Laerm;45943;53.148;8.204;2023-10-31T09:26:59;54.54;42.69;71.09;;
49215;Laerm;45943;53.148;8.204;2023-10-31T09:29:25;50.74;42.28;66.74;;
49215;Laerm;45943;53.148;8.204;2023-10-31T09:31:51;45.06;41.74;71.38;;
49215;Laerm;45943;53.148;8.204;2023-10-31T09:34:17;54.62;42.13;72.72;;
49215;Laerm;45943;53.148;8.204;2023-10-31T09:36:43;48.28;41.90;68.67;;
49215;Laerm;45943;53.148;8.204;2023-10-31T09:39:09;54.62;41.90;70.93;;
49215;Laerm;45943;53.148;8.204;2023-10-31T09:41:36;53.63;42.42;72.57;;
49215;Laerm;45943;53.148;8.204;2023-10-31T09:44:02;45.14;42.13;68.87;;
49215;Laerm;45943;53.148;8.204;2023-10-31T09:46:28;54.17;41.74;72.41;;
49215;Laerm;45943;53.148;8.204;2023-10-31T09:48:55;48.47;41.22;67.95;;
49215;Laerm;45943;53.148;8.204;2023-10-31T09:51:21;46.43;40.41;63.82;;
49215;Laerm;45943;53.148;8.204;2023-10-31T09:53:48;50.17;41.03;68.06;;
49215;Laerm;45943;53.148;8.204;2023-10-31T09:56:15;47.20;41.74;62.84;;
49215;Laerm;45943;53.148;8.204;2023-10-31T09:58:43;49.16;40.83;64.85;;
49215;Laerm;45943;53.148;8.204;2023-10-31T10:01:09;52.09;40.73;70.31;;
49215;Laerm;45943;53.148;8.204;2023-10-31T10:03:37;54.09;41.13;71.21;;
49215;Laerm;45943;53.148;8.204;2023-10-31T10:06:03;42.94;40.63;55.90;;
49215;Laerm;45943;53.148;8.204;2023-10-31T10:08:29;42.90;40.52;58.64;;
49215;Laerm;45943;53.148;8.204;2023-10-31T10:10:55;43.26;40.52;58.29;;
49215;Laerm;45943;53.148;8.204;2023-10-31T10:13:21;47.03;40.63;71.02;;
49215;Laerm;45943;53.148;8.204;2023-10-31T10:15:49;44.64;40.73;65.97;;
49215;Laerm;45943;53.148;8.204;2023-10-31T10:18:28;55.15;41.03;71.44;;
49215;Laerm;45943;53.148;8.204;2023-10-31T10:20:58;50.53;41.13;66.12;;
49215;Laerm;45943;53.148;8.204;2023-10-31T10:23:25;52.05;40.93;70.95;;
49215;Laerm;45943;53.148;8.204;2023-10-31T10:25:53;55.85;41.98;72.03;;
49215;Laerm;45943;53.148;8.204;2023-10-31T10:28:19;56.03;41.40;84.47;;
49215;Laerm;45943;53.148;8.204;2023-10-31T10:30:48;55.15;40.68;80.55;;
49215;Laerm;45943;53.148;8.204;2023-10-31T10:33:15;54.60;41.58;76.93;;
49215;Laerm;45943;53.148;8.204;2023-10-31T10:35:42;53.96;40.83;76.01;;
49215;Laerm;45943;53.148;8.204;2023-10-31T10:38:11;61.44;42.21;85.18;;
49215;Laerm;45943;53.148;8.204;2023-10-31T10:40:42;64.24;42.13;89.48;;
49215;Laerm;45943;53.148;8.204;2023-10-31T10:43:23;52.00;41.66;68.77;;
49215;Laerm;45943;53.148;8.204;2023-10-31T10:45:54;50.70;41.22;66.35;;
49215;Laerm;45943;53.148;8.204;2023-10-31T10:48:22;51.35;42.13;71.24;;
49215;Laerm;45943;53.148;8.204;2023-10-31T10:53:29;53.46;41.31;75.28;;
49215;Laerm;45943;53.148;8.204;2023-10-31T10:56:00;50.59;41.22;71.46;;
49215;Laerm;45943;53.148;8.204;2023-10-31T10:58:43;52.62;41.40;68.76;;
49215;Laerm;45943;53.148;8.204;2023-10-31T11:01:10;52.68;41.58;68.92;;
49215;Laerm;45943;53.148;8.204;2023-10-31T11:03:37;51.01;41.13;74.30;;
49215;Laerm;45943;53.148;8.204;2023-10-31T11:06:05;50.43;39.68;69.89;;
49215;Laerm;45943;53.148;8.204;2023-10-31T11:08:31;52.87;41.31;70.55;;
49215;Laerm;45943;53.148;8.204;2023-10-31T11:10:58;46.93;41.56;60.68;;
49215;Laerm;45943;53.148;8.204;2023-10-31T11:13:25;50.98;41.49;69.07;;
49215;Laerm;45943;53.148;8.204;2023-10-31T11:15:57;53.32;41.13;70.42;;
49215;Laerm;45943;53.148;8.204;2023-10-31T11:18:25;49.17;41.58;65.86;;
49215;Laerm;45943;53.148;8.204;2023-10-31T11:20:53;56.21;43.64;66.15;;
49215;Laerm;45943;53.148;8.204;2023-10-31T11:23:19;53.42;41.98;69.85;;
49215;Laerm;45943;53.148;8.204;2023-10-31T11:25:49;50.86;41.66;68.77;;
49215;Laerm;45943;53.148;8.204;2023-10-31T11:28:18;53.28;41.22;69.58;;
49215;Laerm;45943;53.148;8.204;2023-10-31T11:30:46;49.11;40.06;66.86;;
49215;Laerm;45943;53.148;8.204;2023-10-31T11:33:15;49.01;41.31;67.36;;
49215;Laerm;45943;53.148;8.204;2023-10-31T11:35:42;49.61;41.98;68.63;;
49215;Laerm;45943;53.148;8.204;2023-10-31T11:38:11;53.98;41.58;68.82;;
49215;Laerm;45943;53.148;8.204;2023-10-31T11:43:10;49.75;44.04;64.49;;
49215;Laerm;45943;53.148;8.204;2023-10-31T11:45:43;61.52;43.13;80.69;;
49215;Laerm;45943;53.148;8.204;2023-10-31T11:48:13;54.60;44.37;75.17;;
49215;Laerm;45943;53.148;8.204;2023-10-31T11:50:40;51.66;43.19;75.33;;
49215;Laerm;45943;53.148;8.204;2023-10-31T11:53:08;52.62;43.53;76.35;;
49215;Laerm;45943;53.148;8.204;2023-10-31T11:55:36;45.02;42.76;54.64;;
49215;Laerm;45943;53.148;8.204;2023-10-31T11:58:22;49.23;42.06;68.15;;
49215;Laerm;45943;53.148;8.204;2023-10-31T12:00:50;51.01;42.76;68.86;;
49215;Laerm;45943;53.148;8.204;2023-10-31T12:03:18;52.63;43.74;71.20;;
49215;Laerm;45943;53.148;8.204;2023-10-31T12:05:58;49.99;42.63;67.06;;
49215;Laerm;45943;53.148;8.204;2023-10-31T12:08:29;45.54;42.42;64.43;;
49215;Laerm;45943;53.148;8.204;2023-10-31T12:11:12;46.16;42.28;65.05;;
49215;Laerm;45943;53.148;8.204;2023-10-31T12:13:54;51.57;42.42;69.24;;
49215;Laerm;45943;53.148;8.204;2023-10-31T12:16:27;44.60;42.06;57.39;;
49215;Laerm;45943;53.148;8.204;2023-10-31T12:19:04;50.47;41.49;67.58;;
49215;Laerm;45943;53.148;8.204;2023-10-31T12:21:42;54.62;42.28;70.04;;
49215;Laerm;45943;53.148;8.204;2023-10-31T12:24:10;48.74;41.98;63.84;;
49215;Laerm;45943;53.148;8.204;2023-10-31T12:26:37;46.13;42.06;61.75;;
49215;Laerm;45943;53.148;8.204;2023-10-31T12:29:16;49.82;42.35;69.71;;
49215;Laerm;45943;53.148;8.204;2023-10-31T12:31:51;60.06;43.01;76.25;;
49215;Laerm;45943;53.148;8.204;2023-10-31T12:34:22;55.93;42.63;71.42;;
49215;Laerm;45943;53.148;8.204;2023-10-31T12:36:50;48.39;43.01;66.94;;
49215;Laerm;45943;53.148;8.204;2023-10-31T12:39:20;55.29;42.95;68.39;;
49215;Laerm;45943;53.148;8.204;2023-10-31T12:41:47;46.66;43.07;61.78;;
49215;Laerm;45943;53.148;8.204;2023-10-31T12:44:19;55.12;42.28;87.14;;
49215;Laerm;45943;53.148;8.204;2023-10-31T12:46:48;50.90;42.56;69.79;;
49215;Laerm;45943;53.148;8.204;2023-10-31T12:49:19;56.22;43.19;84.51;;
49215;Laerm;45943;53.148;8.204;2023-10-31T12:51:58;51.75;42.82;73.59;;
49215;Laerm;45943;53.148;8.204;2023-10-31T12:54:35;52.86;42.35;74.94;;
49215;Laerm;45943;53.148;8.204;2023-10-31T12:57:08;51.19;41.90;67.76;;
49215;Laerm;45943;53.148;8.204;2023-10-31T12:59:37;53.55;40.96;77.68;;
49215;Laerm;45943;53.148;8.204;2023-10-31T13:02:07;53.43;42.06;69.06;;
49215;Laerm;45943;53.148;8.204;2023-10-31T13:04:33;65.22;41.90;81.32;;
49215;Laerm;45943;53.148;8.204;2023-10-31T13:09:30;54.19;41.22;71.45;;
49215;Laerm;45943;53.148;8.204;2023-10-31T13:12:04;52.13;40.93;69.27;;
49215;Laerm;45943;53.148;8.204;2023-10-31T13:14:31;48.51;40.83;68.83;;
49215;Laerm;45943;53.148;8.204;2023-10-31T13:16:58;53.82;40.73;69.20;;
49215;Laerm;45943;53.148;8.204;2023-10-31T13:19:24;52.85;42.13;66.87;;
49215;Laerm;45943;53.148;8.204;2023-10-31T13:21:50;52.13;40.73;78.53;;
49215;Laerm;45943;53.148;8.204;2023-10-31T13:24:17;65.84;41.31;87.51;;
49215;Laerm;45943;53.148;8.204;2023-10-31T13:26:43;53.53;40.83;70.87;;
49215;Laerm;45943;53.148;8.204;2023-10-31T13:29:18;52.53;41.23;70.92;;
49215;Laerm;45943;53.148;8.204;2023-10-31T13:31:44;61.60;41.40;76.30;;
49215;Laerm;45943;53.148;8.204;2023-10-31T13:34:09;66.51;41.49;81.66;;
49215;Laerm;45943;53.148;8.204;2023-10-31T13:36:36;66.20;41.74;88.78;;
49215;Laerm;45943;53.148;8.204;2023-10-31T13:39:04;67.86;41.66;88.75;;
49215;Laerm;45943;53.148;8.204;2023-10-31T13:41:30;54.18;42.06;80.13;;
49215;Laerm;45943;53.148;8.204;2023-10-31T13:43:56;50.05;40.73;67.31;;
49215;Laerm;45943;53.148;8.204;2023-10-31T13:46:22;50.43;41.40;63.72;;
49215;Laerm;45943;53.148;8.204;2023-10-31T13:48:55;49.68;42.06;63.07;;
49215;Laerm;45943;53.148;8.204;2023-10-31T13:51:21;52.35;41.74;66.15;;